Time;durP1;ratioP1;P1;durP2;ratioP2;P2;SDS_P1;SDS_P2;PMS_P1;PMS_P2;Temp;Humidity;BMP_temperature;BMP_pressure;BME280_temperature;BME280_humidity;BME280_pressure;Samples;Min_cycle;Max_cycle;Signal;HPM_P1;HPM_P2
2023/10/30 00:02:10;;;;;;;18.75;3.28;;;;;;;9.46;100.00;99722.69;5082968;28;20032;-68
2023/10/30 00:04:36;;;;;;;17.48;3.20;;;;;;;9.45;100.00;99718.28;5084276;28;20039;-68
2023/10/30 00:07:02;;;;;;;19.60;3.50;;;;;;;9.49;100.00;99722.66;5081780;28;20035;-68
2023/10/30 00:09:27;;;;;;;20.67;3.72;;;;;;;9.43;100.00;99724.44;5083160;28;20040;-68
2023/10/30 00:11:54;;;;;;;18.55;3.40;;;;;;;9.49;100.00;99723.50;5083111;28;20059;-67
2023/10/30 00:14:20;;;;;;;18.13;3.42;;;;;;;9.48;100.00;99723.53;5081731;28;20036;-68
2023/10/30 00:16:45;;;;;;;18.13;3.47;;;;;;;9.54;100.00;99723.50;5084265;28;20379;-67
2023/10/30 00:19:11;;;;;;;19.25;3.28;;;;;;;9.55;100.00;99741.03;5080901;28;20036;-70
2023/10/30 00:21:36;;;;;;;17.42;3.50;;;;;;;9.45;100.00;99735.00;5083929;28;20043;-70
2023/10/30 00:24:02;;;;;;;18.25;3.28;;;;;;;9.46;100.00;99746.41;5081791;28;20038;-70
2023/10/30 00:26:28;;;;;;;19.45;3.42;;;;;;;9.47;100.00;99746.41;5082780;28;20021;-68
2023/10/30 00:28:54;;;;;;;20.08;3.20;;;;;;;9.43;100.00;99749.94;5082843;28;20077;-68
2023/10/30 00:31:19;;;;;;;18.17;3.20;;;;;;;9.43;100.00;99756.09;5081503;28;20074;-68
2023/10/30 00:33:44;;;;;;;19.60;3.35;;;;;;;9.45;100.00;99760.47;5084138;28;20043;-68
2023/10/30 00:36:10;;;;;;;19.20;3.83;;;;;;;9.40;100.00;99769.31;5080872;28;20490;-69
2023/10/30 00:38:35;;;;;;;19.33;3.53;;;;;;;9.35;100.00;99760.56;5083980;28;20413;-69
2023/10/30 00:41:00;;;;;;;18.65;3.35;;;;;;;9.30;100.00;99777.31;5081478;28;20470;-68
2023/10/30 00:43:26;;;;;;;17.40;3.03;;;;;;;9.33;100.00;99775.50;5085268;28;20040;-68
2023/10/30 00:45:51;;;;;;;19.83;3.85;;;;;;;9.30;100.00;99777.31;5086877;28;20062;-68
2023/10/30 00:48:17;;;;;;;19.85;3.58;;;;;;;9.26;100.00;99787.00;5085219;28;20111;-69
2023/10/30 00:50:42;;;;;;;20.65;3.67;;;;;;;9.32;100.00;99786.97;5088347;28;20073;-69
2023/10/30 00:53:08;;;;;;;19.75;3.15;;;;;;;9.35;100.00;99789.59;5084502;28;20108;-68
2023/10/30 00:55:37;;;;;;;20.45;3.45;;;;;;;9.42;100.00;99793.03;5086384;28;20059;-69
2023/10/30 00:58:07;;;;;;;18.95;3.30;;;;;;;9.37;100.00;99790.44;5085120;28;20067;-69
2023/10/30 01:00:32;;;;;;;20.05;3.20;;;;;;;9.37;100.00;99806.25;5086852;28;20044;-69
2023/10/30 01:02:58;;;;;;;19.38;3.30;;;;;;;9.38;100.00;99802.75;5085020;28;20033;-69
2023/10/30 01:05:23;;;;;;;21.15;3.40;;;;;;;9.38;100.00;99807.16;5068808;28;20394;-69
2023/10/30 01:07:48;;;;;;;20.05;3.20;;;;;;;9.37;100.00;99813.31;5085961;28;20466;-69
2023/10/30 01:10:14;;;;;;;19.98;3.40;;;;;;;9.39;100.00;99809.78;5085238;28;20024;-69
2023/10/30 01:12:39;;;;;;;18.77;3.50;;;;;;;9.39;100.00;99824.72;5087243;28;20040;-69
2023/10/30 01:15:05;;;;;;;19.88;3.50;;;;;;;9.49;100.00;99820.25;5066559;28;20391;-69
2023/10/30 01:17:30;;;;;;;20.70;3.95;;;;;;;9.43;100.00;99832.59;5087318;28;20024;-69
2023/10/30 01:19:56;;;;;;;20.27;3.35;;;;;;;9.41;100.00;99830.88;5084965;28;20115;-69
2023/10/30 01:22:21;;;;;;;18.20;3.20;;;;;;;9.42;100.00;99825.59;5085856;28;20105;-68
2023/10/30 01:24:46;;;;;;;20.10;3.47;;;;;;;9.40;100.00;99824.69;5086274;28;20036;-69
2023/10/30 01:27:12;;;;;;;19.45;3.45;;;;;;;9.42;100.00;99825.59;5084448;28;20035;-69
2023/10/30 01:29:37;;;;;;;18.65;3.90;;;;;;;9.41;100.00;99823.81;5087121;28;20028;-69
2023/10/30 01:32:03;;;;;;;18.73;3.20;;;;;;;9.45;100.00;99816.78;5082513;28;20491;-69
2023/10/30 01:34:28;;;;;;;18.95;3.50;;;;;;;9.47;100.00;99816.75;5085376;28;20532;-71
2023/10/30 01:36:53;;;;;;;18.42;3.58;;;;;;;9.48;100.00;99821.13;5084886;28;20020;-71
2023/10/30 01:39:19;;;;;;;21.27;3.40;;;;;;;9.48;100.00;99807.94;5084357;28;20036;-71
2023/10/30 01:41:45;;;;;;;20.70;3.50;;;;;;;9.52;100.00;99822.88;5085988;28;20032;-71
2023/10/30 01:44:11;;;;;;;18.45;3.30;;;;;;;9.50;100.00;99812.31;5084254;28;20056;-71
2023/10/30 01:46:36;;;;;;;21.23;3.85;;;;;;;9.49;100.00;99814.97;5087253;28;20052;-71
2023/10/30 01:49:01;;;;;;;18.83;3.58;;;;;;;9.49;100.00;99820.25;5083763;28;20028;-71
2023/10/30 01:51:27;;;;;;;20.45;3.45;;;;;;;9.51;100.00;99818.47;5086236;28;20493;-71
2023/10/30 01:53:53;;;;;;;18.15;3.20;;;;;;;9.54;100.00;99823.75;5084476;28;20020;-71
2023/10/30 01:56:20;;;;;;;19.58;3.70;;;;;;;9.55;100.00;99817.56;5084936;28;20029;-71
2023/10/30 01:58:45;;;;;;;18.30;3.22;;;;;;;9.55;100.00;99818.47;5085612;28;20035;-71
2023/10/30 02:01:11;;;;;;;20.13;3.40;;;;;;;9.62;100.00;99829.81;5082917;28;20024;-71
2023/10/30 02:03:37;;;;;;;20.77;3.50;;;;;;;9.66;100.00;99830.69;5085826;28;20043;-70
2023/10/30 02:06:02;;;;;;;19.60;3.40;;;;;;;9.66;100.00;99830.69;5083560;28;20029;-71
2023/10/30 02:08:28;;;;;;;19.92;3.35;;;;;;;9.69;100.00;99828.03;5086881;28;20043;-71
2023/10/30 02:10:53;;;;;;;18.38;3.25;;;;;;;9.71;100.00;99821.84;5083418;28;20483;-70
2023/10/30 02:13:19;;;;;;;20.17;3.53;;;;;;;9.69;100.00;99831.53;5085679;28;20035;-71
2023/10/30 02:15:44;;;;;;;18.15;3.13;;;;;;;9.70;100.00;99820.09;5084426;28;20115;-71
2023/10/30 02:18:10;;;;;;;19.45;3.20;;;;;;;9.61;100.00;99822.81;5083103;28;20051;-69
2023/10/30 02:20:37;;;;;;;20.23;3.20;;;;;;;9.60;100.00;99824.56;5085650;28;20028;-69
2023/10/30 02:23:02;;;;;;;19.13;3.17;;;;;;;9.62;100.00;99819.25;5082982;28;20060;-69
2023/10/30 02:25:30;;;;;;;18.13;3.10;;;;;;;9.64;100.00;99825.44;5086348;28;20055;-68
2023/10/30 02:27:56;;;;;;;15.98;3.13;;;;;;;9.61;100.00;99817.53;5082982;28;20038;-68
2023/10/30 02:30:22;;;;;;;16.13;3.20;;;;;;;9.56;100.00;99816.69;5085323;28;20099;-67
2023/10/30 02:32:47;;;;;;;19.63;3.30;;;;;;;9.57;100.00;99818.44;5083502;28;20135;-69
2023/10/30 02:35:15;;;;;;;18.75;3.25;;;;;;;9.62;100.00;99815.75;5084433;28;20041;-68
2023/10/30 02:37:41;;;;;;;19.08;3.35;;;;;;;9.64;100.00;99813.97;5084677;28;20394;-69
2023/10/30 02:40:08;;;;;;;18.02;3.25;;;;;;;9.67;100.00;99819.22;5083227;28;20487;-69
2023/10/30 02:42:33;;;;;;;17.60;3.10;;;;;;;9.67;100.00;99814.84;5085617;28;20028;-69
2023/10/30 02:44:59;;;;;;;17.67;3.00;;;;;;;9.64;100.00;99812.22;5081040;28;20050;-69
2023/10/30 02:47:24;;;;;;;17.45;3.08;;;;;;;9.72;100.00;99804.25;5085573;28;20340;-69
2023/10/30 02:49:50;;;;;;;18.73;2.80;;;;;;;9.72;100.00;99806.88;5082035;28;20466;-69
2023/10/30 02:52:16;;;;;;;17.45;2.90;;;;;;;9.67;100.00;99814.84;5084324;28;20497;-69
2023/10/30 02:54:41;;;;;;;18.10;3.13;;;;;;;9.65;100.00;99811.31;5084195;28;20110;-69
2023/10/30 02:57:07;;;;;;;17.25;3.10;;;;;;;9.68;100.00;99810.44;5083031;28;20032;-68
2023/10/30 02:59:32;;;;;;;19.60;3.55;;;;;;;9.65;100.00;99806.03;5085449;28;20386;-69
2023/10/30 03:01:58;;;;;;;17.73;3.10;;;;;;;9.66;100.00;99810.44;5082082;28;20024;-69
2023/10/30 03:04:24;;;;;;;17.70;3.10;;;;;;;9.73;100.00;99798.94;5080684;28;20024;-69
2023/10/30 03:06:50;;;;;;;17.42;3.20;;;;;;;9.72;100.00;99813.03;5081441;28;20031;-69
2023/10/30 03:09:15;;;;;;;19.00;3.30;;;;;;;9.68;100.00;99800.72;5084979;28;20536;-69
2023/10/30 03:11:40;;;;;;;17.23;2.90;;;;;;;9.65;100.00;99806.03;5083054;28;20042;-69
2023/10/30 03:14:06;;;;;;;17.80;3.22;;;;;;;9.64;100.00;99812.22;5083297;28;20032;-69
2023/10/30 03:16:31;;;;;;;18.77;3.10;;;;;;;9.66;100.00;99815.72;5084449;28;20105;-69
2023/10/30 03:18:57;;;;;;;19.15;3.00;;;;;;;9.66;100.00;99815.72;5081962;28;20131;-69
2023/10/30 03:21:22;;;;;;;18.65;3.10;;;;;;;9.74;100.00;99816.53;5083874;28;20028;-69
2023/10/30 03:23:48;;;;;;;19.20;3.30;;;;;;;9.74;100.00;99826.19;5082010;28;20033;-69
2023/10/30 03:26:13;;;;;;;17.20;2.80;;;;;;;9.73;100.00;99832.38;5084231;28;20036;-68
2023/10/30 03:28:39;;;;;;;17.85;3.25;;;;;;;9.68;100.00;99834.19;5082963;28;20406;-68
2023/10/30 03:31:08;;;;;;;18.33;3.00;;;;;;;9.68;100.00;99832.41;5082854;28;20059;-68
2023/10/30 03:33:33;;;;;;;19.45;3.40;;;;;;;9.63;100.00;99823.66;5083508;28;20568;-68
2023/10/30 03:35:58;;;;;;;19.70;3.15;;;;;;;9.66;100.00;99821.00;5080640;28;20036;-69
2023/10/30 03:38:24;;;;;;;19.80;3.50;;;;;;;9.63;100.00;99826.31;5085173;28;20480;-69
2023/10/30 03:40:49;;;;;;;16.52;3.30;;;;;;;9.56;100.00;99819.31;5080087;28;20493;-69
2023/10/30 03:43:16;;;;;;;17.40;3.22;;;;;;;9.48;100.00;99822.03;5084298;28;20031;-69
2023/10/30 03:45:41;;;;;;;17.83;3.38;;;;;;;9.41;100.00;99823.81;5082930;28;20032;-69
2023/10/30 03:48:07;;;;;;;17.63;3.17;;;;;;;9.37;100.00;99821.22;5082958;28;20392;-69
2023/10/30 03:50:32;;;;;;;19.95;3.13;;;;;;;9.34;100.00;99837.94;5083820;28;20126;-69
2023/10/30 03:52:57;;;;;;;17.63;3.40;;;;;;;9.36;100.00;99830.00;5081423;28;20033;-68
2023/10/30 03:55:23;;;;;;;19.13;3.42;;;;;;;9.33;100.00;99828.25;5083538;28;20045;-69
2023/10/30 03:57:48;;;;;;;19.05;3.35;;;;;;;9.34;100.00;99835.28;5081512;28;20024;-69
2023/10/30 04:00:13;;;;;;;17.80;3.50;;;;;;;9.29;100.00;99839.75;5083524;28;20074;-69
2023/10/30 04:02:39;;;;;;;19.42;3.60;;;;;;;9.24;100.00;99837.13;5082148;28;20036;-69
2023/10/30 04:05:06;;;;;;;18.38;3.53;;;;;;;9.21;100.00;99833.63;5082324;28;20109;-69
2023/10/30 04:07:31;;;;;;;18.45;3.30;;;;;;;9.24;100.00;99825.69;5082705;28;20032;-69
2023/10/30 04:09:57;;;;;;;18.88;3.47;;;;;;;9.22;100.00;99835.41;5083197;28;20505;-69
2023/10/30 04:12:22;;;;;;;16.27;3.35;;;;;;;9.20;100.00;99823.97;5081880;28;20111;-69
2023/10/30 04:14:48;;;;;;;17.67;3.40;;;;;;;9.18;100.00;99831.88;5084325;28;20077;-69
2023/10/30 04:17:13;;;;;;;17.23;3.08;;;;;;;9.09;100.00;99829.31;5080733;28;20118;-69
2023/10/30 04:19:38;;;;;;;21.02;3.47;;;;;;;9.08;100.00;99828.41;5083882;28;20475;-69
2023/10/30 04:22:04;;;;;;;18.88;3.20;;;;;;;9.12;100.00;99828.44;5082073;28;20032;-69
2023/10/30 04:24:29;;;;;;;20.90;3.60;;;;;;;9.11;100.00;99829.31;5082190;28;20036;-69
2023/10/30 04:26:54;;;;;;;21.27;3.45;;;;;;;9.17;100.00;99835.41;5083488;28;20032;-68
2023/10/30 04:29:20;;;;;;;19.15;3.50;;;;;;;9.15;100.00;99829.25;5080907;28;20032;-69
2023/10/30 04:31:45;;;;;;;20.88;3.60;;;;;;;9.16;100.00;99840.69;5084365;28;20080;-69
2023/10/30 04:34:10;;;;;;;19.25;3.50;;;;;;;9.13;100.00;99840.69;5079812;28;20033;-69
2023/10/30 04:36:36;;;;;;;17.90;3.42;;;;;;;9.10;100.00;99838.09;5082964;28;20530;-69
2023/10/30 04:39:01;;;;;;;18.77;3.20;;;;;;;9.13;100.00;99840.69;5082570;28;20107;-68
2023/10/30 04:41:26;;;;;;;19.00;3.20;;;;;;;9.05;100.00;99838.97;5081649;28;20036;-68
2023/10/30 04:43:52;;;;;;;17.15;3.13;;;;;;;9.00;100.00;99842.53;5083545;28;20035;-69
2023/10/30 04:46:17;;;;;;;18.15;3.17;;;;;;;9.00;100.00;99846.06;5080814;28;20033;-69
2023/10/30 04:48:43;;;;;;;18.92;3.10;;;;;;;8.97;100.00;99847.81;5083782;28;20099;-69
2023/10/30 04:51:08;;;;;;;19.90;3.47;;;;;;;9.00;100.00;99843.41;5081355;28;20043;-69
2023/10/30 04:53:33;;;;;;;19.17;3.20;;;;;;;9.00;100.00;99847.78;5082708;28;20463;-68
2023/10/30 04:56:02;;;;;;;17.17;3.17;;;;;;;9.01;100.00;99845.19;5082657;28;20036;-69
2023/10/30 04:58:27;;;;;;;18.73;3.40;;;;;;;9.06;100.00;99837.25;5081527;28;20106;-68
2023/10/30 05:00:53;;;;;;;18.80;3.10;;;;;;;8.97;100.00;99840.81;5083650;28;20421;-68
2023/10/30 05:03:18;;;;;;;19.67;3.40;;;;;;;8.94;100.00;99838.19;5081096;28;20044;-68
2023/10/30 05:05:44;;;;;;;21.15;3.55;;;;;;;8.95;100.00;99836.41;5082383;28;20024;-69
2023/10/30 05:08:09;;;;;;;19.38;3.58;;;;;;;9.05;100.00;99833.72;5080596;28;20044;-68
2023/10/30 05:10:34;;;;;;;20.10;3.40;;;;;;;9.06;100.00;99829.34;5083376;28;20024;-69
2023/10/30 05:13:00;;;;;;;18.23;3.30;;;;;;;9.02;100.00;99823.19;5081611;28;20088;-68
2023/10/30 05:15:25;;;;;;;20.63;3.33;;;;;;;9.01;100.00;99833.75;5082181;28;20036;-68
2023/10/30 05:17:54;;;;;;;22.70;3.85;;;;;;;8.95;100.00;99844.31;5082576;28;20043;-69
2023/10/30 05:20:19;;;;;;;19.77;3.38;;;;;;;8.89;100.00;99840.81;5081239;28;20036;-69
2023/10/30 05:22:44;;;;;;;18.75;3.38;;;;;;;8.85;100.00;99844.38;5082025;28;20051;-69
2023/10/30 05:25:10;;;;;;;20.30;3.70;;;;;;;8.81;100.00;99839.09;5080144;28;20043;-69
2023/10/30 05:27:35;;;;;;;19.75;3.70;;;;;;;8.80;100.00;99832.09;5082331;28;20028;-69
2023/10/30 05:30:01;;;;;;;19.27;3.35;;;;;;;8.73;100.00;99833.88;5084185;28;20466;-69
2023/10/30 05:32:26;;;;;;;19.83;3.28;;;;;;;8.69;100.00;99834.75;5085524;28;20044;-69
2023/10/30 05:34:55;;;;;;;19.48;3.70;;;;;;;8.66;100.00;99822.47;5086176;28;20469;-69
2023/10/30 05:37:21;;;;;;;21.98;3.50;;;;;;;8.65;100.00;99815.47;5083505;28;20060;-69
2023/10/30 05:39:49;;;;;;;18.65;3.35;;;;;;;8.60;100.00;99822.50;5086512;28;20098;-69
2023/10/30 05:42:14;;;;;;;21.50;3.80;;;;;;;8.56;100.00;99823.38;5084025;28;20033;-69
2023/10/30 05:44:40;;;;;;;19.67;3.67;;;;;;;8.55;100.00;99824.28;5087011;28;20374;-69
2023/10/30 05:47:05;;;;;;;19.92;3.80;;;;;;;8.52;100.00;99829.56;5083818;28;20122;-69
2023/10/30 05:49:31;;;;;;;20.42;3.60;;;;;;;8.47;100.00;99829.56;5086089;28;20029;-69
2023/10/30 05:51:57;;;;;;;20.42;3.47;;;;;;;8.43;100.00;99829.56;5084894;28;20020;-69
2023/10/30 05:54:22;;;;;;;22.70;3.50;;;;;;;8.43;100.00;99824.28;5084622;28;20028;-68
2023/10/30 05:56:48;;;;;;;20.70;3.55;;;;;;;8.38;100.00;99821.66;5086349;28;20130;-68
2023/10/30 05:59:14;;;;;;;18.38;3.78;;;;;;;8.35;100.00;99822.56;5083326;28;20044;-67
2023/10/30 06:01:40;;;;;;;21.35;3.63;;;;;;;8.33;100.00;99824.31;5086908;28;20458;-69
2023/10/30 06:04:05;;;;;;;18.98;3.80;;;;;;;8.29;100.00;99825.22;5083669;28;20054;-68
2023/10/30 06:06:31;;;;;;;19.95;4.05;;;;;;;8.30;100.00;99816.44;5086434;28;20028;-69
2023/10/30 06:08:56;;;;;;;19.13;3.50;;;;;;;8.31;100.00;99812.03;5083935;28;20040;-68
2023/10/30 06:11:22;;;;;;;19.08;3.63;;;;;;;8.30;100.00;99819.06;5083906;28;20427;-71
2023/10/30 06:13:47;;;;;;;18.33;3.50;;;;;;;8.25;100.00;99825.22;5085044;28;20036;-70
2023/10/30 06:16:20;;;;;;;19.73;3.42;;;;;;;8.23;100.00;99826.97;5083931;28;20112;-68
2023/10/30 06:18:45;;;;;;;;;;;;;;;8.19;100.00;99826.97;5085773;28;20028;-70
2023/10/30 06:21:20;;;;;;;23.70;3.75;;;;;;;8.24;100.00;99837.50;5083218;28;19917;-68
2023/10/30 06:23:45;;;;;;;19.63;3.75;;;;;;;8.24;100.00;99840.13;5084975;28;20137;-71
2023/10/30 06:26:12;;;;;;;21.10;3.75;;;;;;;8.24;100.00;99840.13;5083443;28;20055;-68
2023/10/30 06:28:38;;;;;;;18.95;3.65;;;;;;;8.29;100.00;99843.63;5086010;28;20039;-68
2023/10/30 06:31:12;;;;;;;23.75;4.35;;;;;;;8.27;100.00;99849.78;5082534;28;20028;-69
2023/10/30 06:33:37;;;;;;;20.45;3.80;;;;;;;8.28;100.00;99852.41;5082587;28;20044;-69
2023/10/30 06:36:03;;;;;;;21.77;4.07;;;;;;;8.32;100.00;99853.28;5085838;28;20382;-69
2023/10/30 06:38:28;;;;;;;20.73;3.80;;;;;;;8.30;100.00;99861.19;5082978;28;20087;-68
2023/10/30 06:40:54;;;;;;;20.52;3.88;;;;;;;8.36;100.00;99869.06;5083459;28;20509;-69
2023/10/30 06:43:19;;;;;;;21.23;3.85;;;;;;;8.43;100.00;99872.59;5082728;28;20388;-69
2023/10/30 06:45:44;;;;;;;19.48;3.92;;;;;;;8.48;100.00;99876.09;5083375;28;20463;-69
2023/10/30 06:48:10;;;;;;;21.20;3.85;;;;;;;8.47;100.00;99876.09;5084357;28;20123;-69
2023/10/30 06:50:35;;;;;;;23.05;4.32;;;;;;;8.45;100.00;99880.53;5081047;28;20111;-69
2023/10/30 10:14:47;;;;;;;17.27;3.10;;;;;;;12.24;100.00;99859.16;5066781;27;1614916;-69
2023/10/30 10:17:12;;;;;;;17.60;2.80;;;;;;;12.32;100.00;99857.22;5110178;28;20039;-68
2023/10/30 10:19:45;;;;;;;14.35;2.63;;;;;;;12.38;100.00;99865.06;5110432;28;20034;-69
2023/10/30 10:22:10;;;;;;;;;;;;;;;12.46;100.00;99859.63;5110734;28;20026;-68
2023/10/30 10:24:38;;;;;;;16.55;2.92;;;;;;;12.43;100.00;99860.53;5110015;28;20282;-68
2023/10/30 10:27:04;;;;;;;15.77;2.65;;;;;;;12.45;100.00;99858.75;5110297;28;20053;-68
2023/10/30 10:29:35;;;;;;;17.92;3.00;;;;;;;12.44;100.00;99867.59;5109961;28;20035;-68
2023/10/30 10:32:01;;;;;;;13.65;2.65;;;;;;;12.47;100.00;99870.19;5109888;28;20047;-69
2023/10/30 10:34:33;;;;;;;18.33;3.05;;;;;;;12.52;100.00;99856.84;5091911;28;20028;-68
2023/10/30 10:36:59;;;;;;;14.55;2.92;;;;;;;12.54;100.00;99852.41;5110102;28;20087;-69
2023/10/30 10:39:27;;;;;;;13.90;2.72;;;;;;;12.55;100.00;99860.31;5108893;28;20034;-69
2023/10/30 10:41:54;;;;;;;16.10;2.65;;;;;;;12.54;100.00;99847.97;5109715;28;20020;-69
2023/10/30 10:44:19;;;;;;;14.25;2.63;;;;;;;12.58;100.00;99855.84;5109802;28;20078;-69
2023/10/30 10:46:45;;;;;;;14.85;2.60;;;;;;;12.60;100.00;99852.28;5109777;28;20059;-69
2023/10/30 10:49:11;;;;;;;16.95;3.17;;;;;;;12.61;100.00;99855.78;5109873;28;20386;-69
2023/10/30 10:51:40;;;;;;;16.80;2.75;;;;;;;12.61;100.00;99861.09;5109799;28;20049;-69
2023/10/30 10:54:13;;;;;;;12.10;2.80;;;;;;;12.61;100.00;99861.97;5109633;28;20072;-68
2023/10/30 10:56:39;;;;;;;;;;;;;;;12.71;100.00;99854.69;5109932;28;20420;-70
2023/10/30 10:59:11;;;;;;;16.42;3.20;;;;;;;12.72;100.00;99849.34;5109461;28;19955;-69
2023/10/30 11:01:40;;;;;;;16.60;2.83;;;;;;;12.77;100.00;99853.69;5109505;28;20073;-69
2023/10/30 11:04:08;;;;;;;14.88;2.70;;;;;;;12.73;100.00;99848.47;5109350;28;20625;-69
2023/10/30 11:06:38;;;;;;;11.50;2.47;;;;;;;12.78;100.00;99856.31;5106833;28;20482;-70
2023/10/30 11:09:12;;;;;;;13.65;2.67;;;;;;;12.76;100.00;99841.38;5105578;28;20024;-70
2023/10/30 11:11:51;;;;;;;14.13;2.50;;;;;;;12.79;100.00;99843.97;5105473;28;20520;-69
2023/10/30 11:14:35;;;;;;;14.30;2.70;;;;;;;12.80;100.00;99843.03;5084572;28;20090;-68
2023/10/30 11:17:05;;;;;;;15.52;2.60;;;;;;;12.85;100.00;99835.88;5075319;28;20032;-69
2023/10/30 11:19:37;;;;;;;11.73;2.55;;;;;;;12.92;100.00;99832.19;5075204;28;20505;-69
2023/10/30 11:22:03;;;;;;;13.10;2.60;;;;;;;12.92;100.00;99832.19;5075174;28;20426;-69
2023/10/30 11:24:42;;;;;;;9.60;2.40;;;;;;;12.89;100.00;99829.59;5075150;28;20031;-70
2023/10/30 11:27:28;;;;;;;12.18;2.50;;;;;;;12.87;100.00;99819.03;5071632;28;20024;-69
2023/10/30 11:30:01;;;;;;;10.38;2.50;;;;;;;12.86;100.00;99811.09;5057574;28;20463;-69
2023/10/30 11:32:32;;;;;;;13.00;2.60;;;;;;;12.87;100.00;99808.41;5075226;28;20020;-69
2023/10/30 11:34:57;;;;;;;10.57;2.40;;;;;;;12.97;100.00;99805.56;5075140;28;20055;-70
2023/10/30 11:37:22;;;;;;;12.73;2.50;;;;;;;13.02;100.00;99801.91;5074936;28;20471;-69
2023/10/30 11:39:49;;;;;;;12.68;2.58;;;;;;;13.06;100.00;99795.63;5075009;28;20458;-69
2023/10/30 11:42:30;;;;;;;11.07;2.65;;;;;;;13.14;100.00;99790.13;5075019;28;20028;-69
2023/10/30 11:45:20;;;;;;;12.02;2.40;;;;;;;13.09;100.00;99786.69;5074894;28;20033;-70
2023/10/30 11:47:47;;;;;;;10.02;2.50;;;;;;;13.02;100.00;99787.75;5072683;28;20025;-70
2023/10/30 11:50:16;;;;;;;12.43;2.50;;;;;;;13.02;100.00;99785.97;5074790;28;20060;-70
2023/10/30 11:52:43;;;;;;;9.88;2.28;;;;;;;13.02;100.00;99767.41;5074660;28;20474;-70
2023/10/30 11:55:11;;;;;;;9.45;2.30;;;;;;;12.95;100.00;99783.50;5074751;28;20471;-69
2023/10/30 11:57:37;;;;;;;11.18;2.38;;;;;;;12.89;100.00;99773.91;5074800;28;20051;-69
2023/10/30 12:00:03;;;;;;;9.48;2.42;;;;;;;12.84;100.00;99771.34;5070433;28;20029;-69
2023/10/30 12:02:28;;;;;;;9.40;2.30;;;;;;;12.86;100.00;99764.22;5074469;28;20032;-70
2023/10/30 12:04:54;;;;;;;7.18;2.20;;;;;;;12.95;100.00;99756.97;5074459;28;20371;-70
2023/10/30 12:07:19;;;;;;;12.35;2.50;;;;;;;13.00;100.00;99760.38;5073422;28;20075;-70
2023/10/30 12:09:44;;;;;;;21.65;3.35;;;;;;;13.00;100.00;99760.38;5074430;28;20037;-70
2023/10/30 12:12:10;;;;;;;17.27;2.95;;;;;;;12.97;100.00;99755.16;5074280;28;20494;-69
2023/10/30 12:14:36;;;;;;;10.35;2.42;;;;;;;12.99;100.00;99748.00;5073909;28;20075;-70
2023/10/30 12:17:04;;;;;;;10.73;2.30;;;;;;;12.94;100.00;99750.78;5074375;28;20028;-69
2023/10/30 12:19:29;;;;;;;11.32;2.50;;;;;;;12.87;100.00;99744.75;5074476;28;20399;-70
2023/10/30 12:21:55;;;;;;;9.05;2.30;;;;;;;12.86;100.00;99734.19;5074319;28;20041;-70
2023/10/30 12:24:22;;;;;;;8.18;2.17;;;;;;;12.91;100.00;99732.28;5074464;28;20192;-70
2023/10/30 12:26:48;;;;;;;13.93;2.50;;;;;;;13.00;100.00;99733.84;5072908;28;20478;-70
2023/10/30 12:29:21;;;;;;;13.38;2.40;;;;;;;13.10;100.00;99726.56;5073931;28;20098;-70
2023/10/30 12:32:02;;;;;;;8.65;2.22;;;;;;;13.13;100.00;99716.72;5073996;28;20125;-70
2023/10/30 12:34:28;;;;;;;7.35;2.30;;;;;;;13.07;100.00;99708.94;5074204;28;20497;-70
2023/10/30 12:36:53;;;;;;;13.35;2.60;;;;;;;13.05;100.00;99716.06;5073699;28;20111;-70
2023/10/30 12:39:21;;;;;;;15.00;2.50;;;;;;;13.11;100.00;99709.75;5073752;28;20020;-71
2023/10/30 12:41:51;;;;;;;11.13;2.20;;;;;;;13.10;100.00;99703.53;5073820;28;20031;-70
2023/10/30 12:44:18;;;;;;;10.18;2.35;;;;;;;13.12;100.00;99693.78;5073515;28;20033;-71
2023/10/30 12:46:44;;;;;;;9.70;2.20;;;;;;;13.10;100.00;99690.28;5073617;28;20039;-70
2023/10/30 12:49:09;;;;;;;10.45;2.40;;;;;;;13.00;100.00;99692.28;5073726;28;20028;-70
2023/10/30 12:51:35;;;;;;;7.43;2.30;;;;;;;12.98;100.00;99690.59;5072581;28;20040;-70
2023/10/30 12:54:01;;;;;;;9.65;2.28;;;;;;;12.84;100.00;99683.84;5073416;28;20025;-70
2023/10/30 12:56:26;;;;;;;7.60;1.90;;;;;;;12.72;100.00;99681.44;5073867;28;20028;-70
2023/10/30 12:58:51;;;;;;;7.35;2.10;;;;;;;12.64;100.00;99675.44;5073235;28;20036;-70
2023/10/30 13:01:17;;;;;;;5.15;1.80;;;;;;;12.55;100.00;99663.25;5073533;28;20064;-70
2023/10/30 13:03:43;;;;;;;8.18;2.10;;;;;;;12.52;100.00;99658.03;5073634;28;20375;-70
2023/10/30 13:06:08;;;;;;;7.65;2.20;;;;;;;12.50;100.00;99651.91;5073171;28;20068;-68
2023/10/30 13:08:33;;;;;;;8.35;2.10;;;;;;;12.55;100.00;99648.25;5073138;28;20467;-70
2023/10/30 13:10:59;;;;;;;8.80;2.00;;;;;;;12.67;100.00;99640.94;5055628;28;20190;-70
2023/10/30 13:13:24;;;;;;;9.55;2.10;;;;;;;12.83;100.00;99628.16;5064906;28;20057;-70
2023/10/30 13:15:49;;;;;;;9.05;2.25;;;;;;;13.03;100.00;99622.34;5033421;28;20082;-70
2023/10/30 13:18:15;;;;;;;6.80;2.00;;;;;;;13.21;100.00;99621.03;5033471;28;20511;-70
2023/10/30 13:20:40;;;;;;;6.03;1.90;;;;;;;13.19;100.00;99618.44;5033019;28;20037;-70
2023/10/30 13:23:06;;;;;;;9.00;2.50;;;;;;;13.10;100.00;99613.34;5033246;28;20395;-70
2023/10/30 13:25:31;;;;;;;7.32;2.30;;;;;;;13.06;100.00;99623.16;5033255;28;20029;-70
2023/10/30 13:27:57;;;;;;;13.60;3.60;;;;;;;13.01;100.00;99613.59;5033111;28;20036;-70
2023/10/30 13:30:23;;;;;;;12.57;3.60;;;;;;;12.90;100.00;99617.38;5032924;28;20040;-62
2023/10/30 13:32:48;;;;;;;12.40;3.35;;;;;;;12.90;100.00;99611.19;5032822;28;20029;-62
2023/10/30 13:35:14;;;;;;;6.85;2.22;;;;;;;12.89;100.00;99612.09;5032793;28;20427;-65
2023/10/30 13:37:39;;;;;;;10.30;2.70;;;;;;;12.93;100.00;99602.28;5032760;28;20033;-65
2023/10/30 13:40:06;;;;;;;7.72;2.10;;;;;;;12.88;100.00;99597.09;5032767;28;20041;-63
2023/10/30 13:42:31;;;;;;;6.13;2.20;;;;;;;12.85;100.00;99600.69;5032794;28;20579;-62
2023/10/30 13:44:57;;;;;;;8.40;2.20;;;;;;;12.78;100.00;99601.75;5032764;28;20112;-64
2023/10/30 13:47:22;;;;;;;6.15;2.28;;;;;;;12.70;100.00;99586.03;5032910;28;20052;-63
2023/10/30 13:49:48;;;;;;;7.80;2.33;;;;;;;12.76;100.00;99587.66;5032725;28;20029;-63
2023/10/30 13:52:13;;;;;;;6.00;2.25;;;;;;;12.80;100.00;99585.78;5033077;28;20117;-63
2023/10/30 13:54:39;;;;;;;11.55;2.25;;;;;;;12.82;100.00;99592.81;5031390;28;20426;-63
2023/10/30 13:57:05;;;;;;;7.05;2.00;;;;;;;12.89;100.00;99586.44;5032683;28;20087;-70
2023/10/30 13:59:30;;;;;;;5.05;2.15;;;;;;;12.88;100.00;99592.66;5032756;28;20038;-64
2023/10/30 14:01:56;;;;;;;5.90;2.00;;;;;;;12.93;100.00;99595.22;5032579;28;20038;-63
2023/10/30 14:04:21;;;;;;;10.02;2.10;;;;;;;12.89;100.00;99589.09;5032608;28;20116;-61
2023/10/30 14:06:46;;;;;;;5.25;2.03;;;;;;;12.83;100.00;99581.31;5029139;28;20079;-61
2023/10/30 14:09:12;;;;;;;9.20;2.20;;;;;;;12.81;100.00;99584.91;5032490;28;20582;-63
2023/10/30 14:11:38;;;;;;;10.52;2.25;;;;;;;12.81;100.00;99579.59;5032711;28;20556;-63
2023/10/30 14:14:03;;;;;;;7.63;2.20;;;;;;;12.67;100.00;99582.59;5056259;28;20119;-69
2023/10/30 14:16:29;;;;;;;7.63;2.20;;;;;;;12.46;100.00;99582.19;5072164;28;20032;-71
2023/10/30 14:18:54;;;;;;;9.68;2.38;;;;;;;12.37;100.00;99587.69;5072497;28;20024;-69
2023/10/30 14:21:22;;;;;;;8.73;2.17;;;;;;;12.28;100.00;99575.53;5072348;28;20028;-70
2023/10/30 14:23:47;;;;;;;7.38;2.30;;;;;;;12.22;100.00;99586.28;5072168;28;20518;-71
2023/10/30 14:26:13;;;;;;;10.02;2.40;;;;;;;12.17;100.00;99578.44;5069937;28;20064;-69
2023/10/30 17:09:17;;;;;;;20.55;7.03;;;;;;;10.67;100.00;99450.88;5090140;27;20393;-73
2023/10/30 17:11:42;;;;;;;19.73;6.90;;;;;;;10.70;100.00;99445.53;5078558;28;20510;-72
2023/10/30 17:14:08;;;;;;;19.50;6.72;;;;;;;10.72;100.00;99453.44;5080974;28;20040;-73
2023/10/30 17:16:34;;;;;;;19.38;6.70;;;;;;;10.71;100.00;99454.34;5079504;28;20419;-73
2023/10/30 17:18:59;;;;;;;19.27;6.40;;;;;;;10.70;100.00;99460.50;5079355;28;20376;-72
2023/10/30 17:21:25;;;;;;;21.63;7.10;;;;;;;10.69;100.00;99457.00;5080804;28;20061;-73
2023/10/30 17:23:50;;;;;;;19.80;7.20;;;;;;;10.68;100.00;99455.25;5076809;28;20055;-73